Time;durP1;ratioP1;P1;durP2;ratioP2;P2;SDS_P1;SDS_P2;PMS_P1;PMS_P2;Temp;Humidity;BMP_temperature;BMP_pressure;BME280_temperature;BME280_humidity;BME280_pressure;Samples;Min_cycle;Max_cycle;Signal;HPM_P1;HPM_P2
2023/07/17 00:00:38;;;;;;;4.45;4.03;;;21.50;99.90;;;;;;5037707;28;20664;-61
2023/07/17 00:03:12;;;;;;;6.90;4.57;;;21.40;99.90;;;;;;5028818;28;20046;-61
2023/07/17 00:05:39;;;;;;;;;;;21.30;99.90;;;;;;5030706;28;20045;-61
2023/07/17 00:08:06;;;;;;;6.72;4.40;;;21.30;99.90;;;;;;5024909;28;19929;-60
2023/07/17 00:10:33;;;;;;;6.75;4.35;;;21.30;99.90;;;;;;5015443;28;20050;-61
2023/07/17 00:12:59;;;;;;;6.40;4.43;;;21.20;99.90;;;;;;5032700;28;20042;-61
2023/07/17 00:15:26;;;;;;;6.55;4.38;;;21.10;99.90;;;;;;5032827;28;20399;-59
2023/07/17 00:17:53;;;;;;;6.97;4.70;;;21.10;99.90;;;;;;5023825;28;20037;-62
2023/07/17 00:20:20;;;;;;;5.75;5.20;;;21.10;99.90;;;;;;5032100;28;20084;-61
2023/07/17 00:22:47;;;;;;;5.75;4.63;;;21.00;99.90;;;;;;5032669;28;20041;-60
2023/07/17 00:25:14;;;;;;;6.65;4.28;;;20.90;99.90;;;;;;5031639;28;20052;-60
2023/07/17 00:27:41;;;;;;;6.50;5.25;;;21.00;99.90;;;;;;5031733;28;20042;-61
2023/07/17 00:30:08;;;;;;;5.32;4.32;;;20.90;99.90;;;;;;5016305;28;20129;-61
2023/07/17 00:32:35;;;;;;;;;;;20.90;99.90;;;;;;5014822;28;20045;-60
2023/07/17 00:35:02;;;;;;;9.05;4.43;;;21.00;99.90;;;;;;5030066;28;19928;-61
2023/07/17 00:37:29;;;;;;;8.63;4.82;;;20.90;99.90;;;;;;5005964;28;20491;-61
2023/07/17 00:39:56;;;;;;;6.13;4.82;;;20.90;99.90;;;;;;5032428;28;20116;-61
2023/07/17 00:42:23;;;;;;;5.32;4.72;;;20.80;99.90;;;;;;5031186;28;20041;-61
2023/07/17 00:44:49;;;;;;;5.18;4.65;;;20.80;99.90;;;;;;5006211;28;20055;-61
2023/07/17 00:47:17;;;;;;;8.73;4.72;;;20.70;99.90;;;;;;5022754;28;20136;-61
2023/07/17 00:49:47;;;;;;;4.70;4.10;;;20.50;99.90;;;;;;5030380;28;20056;-61
2023/07/17 00:52:15;;;;;;;5.75;4.38;;;20.50;99.90;;;;;;5025073;28;20049;-60
2023/07/17 00:54:42;;;;;;;5.25;4.50;;;20.50;99.90;;;;;;5012937;28;20047;-61
2023/07/17 00:57:11;;;;;;;5.47;4.47;;;20.50;99.90;;;;;;5033387;22;20081;-65
2023/07/17 00:59:39;;;;;;;6.65;4.93;;;20.50;99.90;;;;;;4998905;28;20076;-65
2023/07/17 01:02:07;;;;;;;8.68;4.50;;;20.40;99.90;;;;;;5010211;28;20073;-65
2023/07/17 01:04:36;;;;;;;7.25;5.28;;;20.50;99.90;;;;;;4986557;28;20050;-64
2023/07/17 01:07:03;;;;;;;7.45;5.25;;;20.40;99.90;;;;;;5009872;28;20056;-65
2023/07/17 01:09:30;;;;;;;;;;;20.40;99.90;;;;;;5002772;28;20138;-65
2023/07/17 01:11:57;;;;;;;6.93;4.55;;;20.40;99.90;;;;;;5010768;28;20461;-65
2023/07/17 01:14:23;;;;;;;5.53;4.90;;;20.40;99.90;;;;;;5001207;28;20065;-65
2023/07/17 01:16:51;;;;;;;8.00;5.00;;;20.40;99.90;;;;;;5011961;28;20059;-65
2023/07/17 01:19:18;;;;;;;7.60;5.40;;;20.40;99.90;;;;;;5002571;28;20049;-65
2023/07/17 01:21:58;;;;;;;6.68;5.50;;;20.40;99.90;;;;;;5011975;28;20057;-65
2023/07/17 01:24:25;;;;;;;8.05;5.45;;;20.40;99.90;;;;;;5010792;28;20125;-65
2023/07/17 01:26:52;;;;;;;5.95;5.30;;;20.40;99.90;;;;;;5011702;28;20080;-65
2023/07/17 01:29:19;;;;;;;6.47;5.60;;;20.50;99.90;;;;;;5010016;28;20455;-65
2023/07/17 01:31:46;;;;;;;7.53;4.95;;;20.40;99.90;;;;;;5003306;28;20092;-64
2023/07/17 01:34:13;;;;;;;8.40;6.00;;;20.40;99.90;;;;;;5009206;28;20073;-64
2023/07/17 01:36:40;;;;;;;9.05;6.78;;;20.40;99.90;;;;;;5010343;28;20434;-64
2023/07/17 01:39:07;;;;;;;10.02;6.25;;;20.40;99.90;;;;;;5009962;28;20036;-64
2023/07/17 01:41:34;;;;;;;11.27;6.65;;;20.40;99.90;;;;;;4993654;28;20073;-65
2023/07/17 01:44:00;;;;;;;11.27;6.57;;;20.40;99.90;;;;;;5002467;28;20054;-64
2023/07/17 01:46:27;;;;;;;8.73;6.28;;;20.30;99.90;;;;;;5001598;28;20478;-64
2023/07/17 01:48:55;;;;;;;8.05;6.75;;;20.30;99.90;;;;;;5002561;28;20096;-64
2023/07/17 01:51:21;;;;;;;10.52;7.47;;;20.30;99.90;;;;;;4986357;28;20579;-64
2023/07/17 01:53:48;;;;;;;7.85;6.45;;;20.20;99.90;;;;;;5009296;28;20037;-64
2023/07/17 01:56:15;;;;;;;9.25;7.78;;;20.20;99.90;;;;;;5000697;28;20054;-64
2023/07/17 01:58:42;;;;;;;10.45;7.50;;;20.10;99.90;;;;;;4990903;28;20045;-64
2023/07/17 02:01:09;;;;;;;10.98;8.35;;;20.10;99.90;;;;;;5009263;28;20100;-64
2023/07/17 02:03:36;;;;;;;9.15;7.15;;;20.00;99.90;;;;;;5007291;28;20561;-64
2023/07/17 02:06:04;;;;;;;10.82;7.63;;;20.00;99.90;;;;;;5003829;28;20119;-65
2023/07/17 02:08:31;;;;;;;9.13;7.82;;;20.00;99.90;;;;;;5003502;28;20521;-64
2023/07/17 02:10:57;;;;;;;10.65;7.70;;;20.00;99.90;;;;;;5006888;28;20671;-64
2023/07/17 02:13:24;;;;;;;12.73;7.88;;;19.90;99.90;;;;;;4997858;28;20050;-64
2023/07/17 02:15:51;;;;;;;10.13;8.20;;;19.90;99.90;;;;;;5001949;28;20128;-64
2023/07/17 02:18:18;;;;;;;11.50;8.60;;;19.90;99.90;;;;;;5010188;28;20483;-64
2023/07/17 02:20:47;;;;;;;12.05;8.93;;;19.80;99.90;;;;;;5011468;28;20034;-64
2023/07/17 02:23:15;;;;;;;12.20;8.23;;;19.80;99.90;;;;;;5011256;28;20517;-64
2023/07/17 02:25:42;;;;;;;11.02;9.18;;;19.80;99.90;;;;;;4999752;28;20439;-64
2023/07/17 02:28:10;;;;;;;12.05;7.88;;;19.80;99.90;;;;;;5011139;28;20046;-64
2023/07/17 02:30:37;;;;;;;9.43;7.47;;;19.80;99.90;;;;;;5001758;28;20046;-64
2023/07/17 02:33:04;;;;;;;11.52;8.77;;;19.70;99.90;;;;;;5005517;28;20133;-64
2023/07/17 02:35:31;;;;;;;11.27;9.07;;;19.80;99.90;;;;;;5008236;28;20046;-64
2023/07/17 02:37:57;;;;;;;12.57;8.38;;;19.70;99.90;;;;;;5010885;28;20034;-64
2023/07/17 02:40:25;;;;;;;10.18;7.57;;;19.70;99.90;;;;;;5009134;28;20050;-65
2023/07/17 02:42:52;;;;;;;8.32;6.80;;;19.70;99.90;;;;;;5011028;28;20117;-64
2023/07/17 02:45:19;;;;;;;11.20;7.78;;;19.60;99.90;;;;;;5009601;28;20446;-64
2023/07/17 02:47:46;;;;;;;9.48;7.05;;;19.60;99.90;;;;;;5009434;28;20182;-64
2023/07/17 02:50:13;;;;;;;11.52;7.68;;;19.60;99.90;;;;;;5001944;28;20054;-64
2023/07/17 02:52:41;;;;;;;11.25;7.78;;;19.60;99.90;;;;;;5012683;28;20069;-64
2023/07/17 02:55:08;;;;;;;10.13;8.48;;;19.60;99.90;;;;;;5008135;28;20174;-64
2023/07/17 02:57:35;;;;;;;;;;;19.50;99.90;;;;;;5001587;28;20132;-65
2023/07/17 03:00:08;;;;;;;8.90;7.95;;;19.60;99.90;;;;;;5003950;28;20434;-64
2023/07/17 03:02:37;;;;;;;12.32;8.40;;;19.60;99.90;;;;;;5006312;28;20043;-65
2023/07/17 03:05:08;;;;;;;9.85;8.25;;;19.50;99.90;;;;;;5017009;28;20109;-65
2023/07/17 03:07:43;;;;;;;8.85;7.00;;;19.60;99.90;;;;;;5008145;28;20133;-64
2023/07/17 03:10:12;;;;;;;15.63;8.13;;;19.70;99.90;;;;;;5015084;28;20639;-64
2023/07/17 03:12:39;;;;;;;10.77;7.47;;;19.70;99.90;;;;;;5001588;28;20499;-65
2023/07/17 03:15:06;;;;;;;;;;;19.80;99.90;;;;;;5009328;28;20038;-65
2023/07/17 03:17:33;;;;;;;11.18;8.15;;;19.80;99.90;;;;;;5007918;28;19925;-65
2023/07/17 03:20:05;;;;;;;10.60;8.10;;;19.90;99.90;;;;;;5012802;28;20048;-65
2023/07/17 03:22:32;;;;;;;12.90;6.97;;;19.90;99.90;;;;;;5013615;28;20049;-65
2023/07/17 03:24:59;;;;;;;10.32;6.68;;;19.90;99.90;;;;;;5010227;28;20504;-65
2023/07/17 03:27:26;;;;;;;9.88;7.45;;;19.90;99.90;;;;;;5011408;28;20073;-65
2023/07/17 03:29:52;;;;;;;8.63;7.35;;;19.90;99.90;;;;;;5012398;28;20038;-65
2023/07/17 03:32:19;;;;;;;10.93;8.30;;;19.90;99.90;;;;;;5012344;28;20038;-65
2023/07/17 03:34:47;;;;;;;17.00;9.25;;;19.90;99.90;;;;;;5009126;28;20096;-65
2023/07/17 03:37:14;;;;;;;11.98;8.23;;;19.90;99.90;;;;;;5012208;28;20046;-65
2023/07/17 03:39:41;;;;;;;10.18;7.32;;;19.90;99.90;;;;;;5002999;28;20483;-65
2023/07/17 03:42:11;;;;;;;11.50;7.65;;;20.00;99.90;;;;;;5005478;28;20042;-65
2023/07/17 03:44:38;;;;;;;12.63;7.45;;;19.90;99.90;;;;;;5011153;28;20056;-65
2023/07/17 03:47:06;;;;;;;8.90;7.10;;;20.00;99.90;;;;;;5011834;28;20046;-65
2023/07/17 03:49:35;;;;;;;9.65;7.82;;;20.00;99.90;;;;;;5011474;28;20053;-65
2023/07/17 03:52:03;;;;;;;9.55;7.25;;;20.00;99.90;;;;;;5012139;28;20046;-65
2023/07/17 03:54:30;;;;;;;9.30;7.22;;;20.00;99.90;;;;;;5011120;28;20043;-65
2023/07/17 03:56:58;;;;;;;11.60;7.10;;;20.00;99.90;;;;;;4990194;28;20042;-65
2023/07/17 03:59:25;;;;;;;11.15;7.47;;;20.00;99.90;;;;;;5012917;28;20430;-65
2023/07/17 04:01:53;;;;;;;9.57;7.35;;;20.00;99.90;;;;;;5007648;28;20049;-65
2023/07/17 04:04:20;;;;;;;9.48;7.85;;;20.00;99.90;;;;;;5004394;28;20039;-65
2023/07/17 04:06:47;;;;;;;10.93;7.70;;;20.00;99.90;;;;;;5004380;28;20042;-64
2023/07/17 04:09:15;;;;;;;;;;;20.00;99.90;;;;;;4981828;28;20121;-64
2023/07/17 04:11:45;;;;;;;10.75;6.85;;;20.00;99.90;;;;;;4999913;28;19921;-64
2023/07/17 04:14:17;;;;;;;9.38;7.85;;;20.10;99.90;;;;;;5010347;28;20049;-65
2023/07/17 04:16:44;;;;;;;12.30;8.93;;;20.10;99.90;;;;;;5000989;28;20073;-65
2023/07/17 04:19:11;;;;;;;12.52;9.18;;;20.20;99.90;;;;;;4993958;28;20042;-65
2023/07/17 04:21:38;;;;;;;10.23;7.75;;;20.10;99.90;;;;;;5004844;28;20056;-65
2023/07/17 04:24:05;;;;;;;9.30;7.63;;;20.10;99.90;;;;;;4995008;28;20041;-64
2023/07/17 04:26:42;;;;;;;10.48;7.65;;;20.10;99.90;;;;;;5009727;28;20042;-64
2023/07/17 04:29:10;;;;;;;7.78;6.97;;;20.10;99.90;;;;;;5010010;28;20088;-64
2023/07/17 04:31:38;;;;;;;10.13;7.40;;;20.10;99.90;;;;;;4992408;28;20046;-65
2023/07/17 04:34:05;;;;;;;8.80;6.97;;;20.20;99.90;;;;;;4992416;28;20049;-65
2023/07/17 04:36:32;;;;;;;8.57;7.07;;;20.20;99.90;;;;;;4999868;28;20381;-64
2023/07/17 04:38:59;;;;;;;7.43;6.60;;;20.20;99.90;;;;;;4989551;28;20046;-64
2023/07/17 04:41:27;;;;;;;7.68;5.93;;;20.20;99.90;;;;;;4988915;28;20506;-65
2023/07/17 04:43:54;;;;;;;6.70;6.00;;;20.30;99.90;;;;;;4993619;28;20038;-65
2023/07/17 04:46:20;;;;;;;10.00;6.55;;;20.30;99.90;;;;;;5006461;28;20038;-65
2023/07/17 04:48:47;;;;;;;9.13;5.88;;;20.30;99.90;;;;;;4995484;28;20049;-65
2023/07/17 04:51:15;;;;;;;9.25;6.15;;;20.40;99.90;;;;;;4995754;28;20446;-65
2023/07/17 04:53:42;;;;;;;9.07;6.50;;;20.50;99.90;;;;;;4989806;28;20103;-65
2023/07/17 04:56:09;;;;;;;7.70;6.75;;;20.50;99.90;;;;;;4991831;28;20093;-65
2023/07/17 04:58:36;;;;;;;10.60;8.45;;;20.60;99.90;;;;;;4991134;28;20097;-65
2023/07/17 05:01:04;;;;;;;11.32;9.75;;;20.50;99.90;;;;;;4997557;28;20108;-65
2023/07/17 05:03:31;;;;;;;12.82;9.85;;;20.50;99.90;;;;;;4986026;28;20056;-65
2023/07/17 05:05:59;;;;;;;11.32;9.38;;;20.50;99.90;;;;;;5007638;28;20046;-65
2023/07/17 05:08:27;;;;;;;14.48;10.18;;;20.40;99.90;;;;;;4994345;28;20045;-65
2023/07/17 05:10:59;;;;;;;13.60;9.35;;;20.40;99.90;;;;;;4994814;28;20050;-65
2023/07/17 05:13:32;;;;;;;11.25;9.35;;;20.30;99.90;;;;;;4999649;28;20046;-65
2023/07/17 05:16:00;;;;;;;13.93;10.30;;;20.20;99.90;;;;;;4994194;28;20042;-65
2023/07/17 05:18:28;;;;;;;12.65;10.35;;;20.20;99.90;;;;;;4992926;28;20108;-65
2023/07/17 05:20:55;;;;;;;19.15;12.05;;;20.20;99.90;;;;;;5007626;28;20050;-65
2023/07/17 05:23:22;;;;;;;;;;;20.10;99.90;;;;;;5010290;28;20458;-64
2023/07/17 05:25:54;;;;;;;16.55;10.10;;;20.00;99.90;;;;;;5008915;28;19953;-64
2023/07/17 05:28:24;;;;;;;11.85;8.40;;;19.90;99.90;;;;;;5009741;28;20060;-64
2023/07/17 05:30:52;;;;;;;11.20;7.60;;;19.90;99.90;;;;;;4992864;28;20057;-64
2023/07/17 05:33:20;;;;;;;11.30;6.00;;;19.90;99.90;;;;;;5005278;28;20034;-64
2023/07/17 05:35:49;;;;;;;9.30;4.57;;;19.80;99.90;;;;;;4997700;28;20074;-64
2023/07/17 05:38:18;;;;;;;4.90;4.00;;;19.80;99.90;;;;;;5002677;28;20104;-64
2023/07/17 05:40:46;;;;;;;5.68;3.20;;;19.70;99.90;;;;;;5009110;28;20498;-64
2023/07/17 05:43:13;;;;;;;3.47;2.53;;;19.70;99.90;;;;;;5008388;28;20053;-64
2023/07/17 05:45:49;;;;;;;3.10;2.40;;;19.70;99.90;;;;;;5009787;28;20044;-64
2023/07/17 05:48:16;;;;;;;3.78;2.00;;;19.70;99.90;;;;;;5006537;28;20503;-64
2023/07/17 05:50:44;;;;;;;4.10;1.95;;;19.70;99.90;;;;;;5000191;28;20062;-64
2023/07/17 05:53:11;;;;;;;3.63;2.00;;;19.70;99.90;;;;;;5006468;28;20034;-64
2023/07/17 05:55:38;;;;;;;3.67;1.65;;;19.70;99.90;;;;;;4997200;28;20046;-64
2023/07/17 05:58:05;;;;;;;5.53;1.85;;;19.60;99.90;;;;;;4991987;28;20046;-64
2023/07/17 06:00:32;;;;;;;4.18;2.20;;;19.60;99.90;;;;;;5009074;28;20042;-64
2023/07/17 06:02:58;;;;;;;4.03;1.92;;;19.50;99.90;;;;;;5009375;28;20046;-64
2023/07/17 06:05:25;;;;;;;7.72;1.92;;;19.50;99.90;;;;;;5010949;28;20052;-64
2023/07/17 06:07:52;;;;;;;4.72;2.13;;;19.50;99.90;;;;;;5009734;28;20046;-64
2023/07/17 06:10:19;;;;;;;5.03;2.17;;;19.50;99.90;;;;;;5011509;28;20462;-64
2023/07/17 06:12:46;;;;;;;4.05;2.10;;;19.60;99.90;;;;;;5010504;28;20050;-64
2023/07/17 06:15:14;;;;;;;3.97;2.15;;;19.50;99.90;;;;;;5003425;28;20038;-64
2023/07/17 06:17:40;;;;;;;3.90;2.00;;;19.50;99.90;;;;;;5010145;28;20065;-64
2023/07/17 06:20:10;;;;;;;2.90;1.85;;;19.60;99.90;;;;;;5011229;28;20062;-64
2023/07/17 06:22:37;;;;;;;5.78;2.15;;;19.50;99.90;;;;;;5004724;28;20057;-64
2023/07/17 06:25:05;;;;;;;7.72;2.50;;;19.40;99.90;;;;;;5009967;28;20049;-64
2023/07/17 06:27:32;;;;;;;4.45;2.40;;;19.50;99.90;;;;;;5013207;28;20095;-64
2023/07/17 06:29:59;;;;;;;;;;;19.50;99.90;;;;;;5014198;28;20054;-64
2023/07/17 06:32:26;;;;;;;2.63;2.00;;;19.50;99.90;;;;;;5001068;28;20059;-64
2023/07/17 06:34:53;;;;;;;5.25;2.30;;;19.60;99.90;;;;;;5014259;28;20050;-64
2023/07/17 06:37:20;;;;;;;5.28;2.15;;;19.60;99.90;;;;;;5003533;28;20069;-64
2023/07/17 06:39:47;;;;;;;3.22;1.83;;;19.50;99.90;;;;;;5007366;28;20562;-64
2023/07/17 06:42:13;;;;;;;1.95;1.75;;;19.60;99.90;;;;;;5008546;28;20414;-64
2023/07/17 06:44:40;;;;;;;3.25;2.38;;;19.50;99.90;;;;;;5009239;28;20121;-64
2023/07/17 06:47:07;;;;;;;2.45;1.80;;;19.50;99.90;;;;;;5011511;28;20046;-64
2023/07/17 06:49:51;;;;;;;6.22;2.08;;;19.50;99.90;;;;;;5004819;28;20069;-64
2023/07/17 06:52:17;;;;;;;2.55;1.98;;;19.50;99.90;;;;;;5004725;28;20073;-64
2023/07/17 06:54:44;;;;;;;4.32;2.67;;;19.50;99.90;;;;;;5008831;28;20046;-64
2023/07/17 06:57:29;;;;;;;4.05;2.33;;;19.50;99.90;;;;;;5006006;28;20073;-64
2023/07/17 06:59:56;;;;;;;3.13;2.55;;;19.60;99.90;;;;;;5011772;28;20068;-64
2023/07/17 07:02:23;;;;;;;5.78;2.40;;;19.50;99.90;;;;;;5006420;28;20033;-64
2023/07/17 07:04:49;;;;;;;2.97;2.22;;;19.60;99.90;;;;;;5006833;28;20141;-64
2023/07/17 07:07:16;;;;;;;3.10;2.45;;;19.70;99.90;;;;;;5005447;28;20045;-64
2023/07/17 07:09:45;;;;;;;2.50;2.30;;;19.80;99.90;;;;;;5008089;28;20126;-64
2023/07/17 07:12:12;;;;;;;3.95;2.50;;;19.80;99.90;;;;;;5014233;28;20124;-64
2023/07/17 07:14:39;;;;;;;4.03;2.35;;;19.90;99.90;;;;;;5005873;28;20034;-64
2023/07/17 07:17:06;;;;;;;3.88;2.60;;;19.90;99.90;;;;;;5012848;28;20831;-65
2023/07/17 07:19:33;;;;;;;3.65;2.70;;;19.90;99.90;;;;;;5000568;28;20402;-65
2023/07/17 07:22:00;;;;;;;4.65;2.60;;;19.80;99.90;;;;;;5005488;28;20125;-65
2023/07/17 07:24:27;;;;;;;4.40;2.65;;;19.80;99.90;;;;;;5003825;28;20034;-65
2023/07/17 07:26:54;;;;;;;5.30;2.65;;;19.70;99.90;;;;;;5009811;28;20053;-65
2023/07/17 07:29:20;;;;;;;4.93;2.90;;;19.70;99.90;;;;;;5011444;28;20465;-65
2023/07/17 07:31:47;;;;;;;6.10;3.35;;;19.80;99.90;;;;;;5011041;28;20044;-65
2023/07/17 07:34:14;;;;;;;4.28;2.80;;;19.90;99.90;;;;;;5008393;28;20046;-65
2023/07/17 07:36:41;;;;;;;4.93;3.05;;;20.10;99.90;;;;;;5013813;28;20124;-65
2023/07/17 07:39:08;;;;;;;3.42;2.78;;;20.30;99.90;;;;;;5011472;28;20117;-65
2023/07/17 07:41:35;;;;;;;4.65;3.08;;;20.50;99.90;;;;;;5007649;28;20070;-65
2023/07/17 07:44:02;;;;;;;3.67;2.90;;;20.80;99.90;;;;;;5013471;28;20077;-65
2023/07/17 07:46:29;;;;;;;7.43;3.25;;;21.00;99.90;;;;;;5012646;28;20478;-65
2023/07/17 07:48:56;;;;;;;2.97;2.65;;;21.30;99.90;;;;;;5013169;28;20068;-65
2023/07/17 07:51:23;;;;;;;9.23;2.72;;;21.50;99.90;;;;;;5005075;28;20487;-65
2023/07/17 07:53:50;;;;;;;4.10;2.97;;;21.60;99.90;;;;;;5005346;28;20034;-65
2023/07/17 07:56:17;;;;;;;3.25;2.83;;;21.60;99.90;;;;;;5012319;28;20045;-65
2023/07/17 07:58:45;;;;;;;3.08;2.45;;;21.50;99.90;;;;;;5005012;28;20044;-65
2023/07/17 08:01:12;;;;;;;3.90;2.90;;;21.40;99.90;;;;;;5004001;28;20465;-64
2023/07/17 08:03:40;;;;;;;4.68;2.83;;;21.50;99.90;;;;;;5008110;28;20129;-64
2023/07/17 08:06:07;;;;;;;6.07;2.33;;;21.50;99.90;;;;;;5008818;28;20454;-64
2023/07/17 08:08:34;;;;;;;3.85;2.72;;;21.60;99.90;;;;;;5001581;28;20050;-64
2023/07/17 08:11:01;;;;;;;5.43;2.55;;;21.60;99.90;;;;;;5000634;28;20104;-64
2023/07/17 08:13:29;;;;;;;8.23;2.60;;;21.80;99.90;;;;;;5012777;28;20041;-64
2023/07/17 08:15:56;;;;;;;5.63;3.13;;;21.90;99.90;;;;;;5004373;28;20045;-65
2023/07/17 08:18:23;;;;;;;3.70;2.90;;;21.80;99.90;;;;;;5011026;28;20092;-65
2023/07/17 08:20:50;;;;;;;5.60;3.25;;;21.70;99.90;;;;;;5013195;28;20030;-65
2023/07/17 08:23:25;;;;;;;5.75;3.20;;;21.80;99.90;;;;;;5004170;28;20084;-64
2023/07/17 08:25:52;;;;;;;4.57;3.42;;;22.00;99.90;;;;;;5012723;28;20038;-65
2023/07/17 08:28:19;;;;;;;5.45;3.10;;;22.10;99.90;;;;;;5010920;28;20125;-65
2023/07/17 08:30:46;;;;;;;5.50;3.55;;;22.10;99.90;;;;;;5012652;28;20041;-65
2023/07/17 08:33:13;;;;;;;5.93;3.13;;;22.10;99.90;;;;;;5012280;28;20068;-64
2023/07/17 08:35:39;;;;;;;6.45;3.67;;;22.00;99.90;;;;;;5011842;28;20038;-65
2023/07/17 08:38:06;;;;;;;4.60;3.88;;;22.20;99.90;;;;;;5012258;28;20045;-65
2023/07/17 08:40:35;;;;;;;5.25;3.70;;;22.50;99.90;;;;;;5012492;28;20057;-65
2023/07/17 08:43:02;;;;;;;7.82;3.22;;;22.70;99.90;;;;;;5004586;28;20117;-66
2023/07/17 08:45:31;;;;;;;3.53;3.10;;;22.90;99.90;;;;;;5011391;28;20052;-65
2023/07/17 08:47:59;;;;;;;5.50;3.47;;;23.10;99.90;;;;;;5004839;28;20050;-64
2023/07/17 08:50:26;;;;;;;5.38;3.47;;;23.20;99.90;;;;;;5002863;28;20486;-64
2023/07/17 08:52:55;;;;;;;6.50;3.33;;;23.10;99.90;;;;;;5012264;28;20072;-65
2023/07/17 08:55:22;;;;;;;8.25;4.07;;;22.90;99.90;;;;;;5011434;28;20037;-65
2023/07/17 08:57:53;;;;;;;4.78;3.40;;;22.80;99.90;;;;;;5011999;28;20128;-64
2023/07/17 09:00:23;;;;;;;6.88;4.40;;;22.70;99.90;;;;;;5010824;28;20499;-65
2023/07/17 09:02:52;;;;;;;7.15;3.90;;;22.70;99.90;;;;;;5012297;28;20056;-64
2023/07/17 09:05:19;;;;;;;6.10;4.10;;;22.80;99.90;;;;;;5003899;28;20138;-65
2023/07/17 09:07:47;;;;;;;4.22;3.70;;;22.90;99.90;;;;;;5011516;28;20066;-65
2023/07/17 09:10:17;;;;;;;6.70;4.13;;;23.10;99.90;;;;;;5011205;28;20042;-64
2023/07/17 09:12:56;;;;;;;7.03;3.75;;;23.40;99.90;;;;;;5012221;28;20603;-65
2023/07/17 09:15:24;;;;;;;6.55;3.88;;;23.60;99.90;;;;;;5003991;28;20049;-65
2023/07/17 09:17:51;;;;;;;7.10;3.97;;;23.60;99.90;;;;;;5011168;28;20042;-66
2023/07/17 09:20:19;;;;;;;4.65;3.55;;;23.60;99.90;;;;;;5012475;28;20052;-66
2023/07/17 09:22:47;;;;;;;8.73;3.25;;;23.50;99.90;;;;;;5010883;28;20045;-65
2023/07/17 09:25:15;;;;;;;3.92;3.42;;;23.80;99.90;;;;;;5011389;28;20038;-65
2023/07/17 09:27:44;;;;;;;7.40;3.53;;;24.10;99.90;;;;;;5009668;28;20038;-65
2023/07/17 09:30:16;;;;;;;5.03;3.08;;;24.30;99.90;;;;;;5011381;28;20045;-65
2023/07/17 09:32:44;;;;;;;3.83;3.28;;;24.70;99.90;;;;;;5007141;28;20118;-65
2023/07/17 09:35:12;;;;;;;8.27;3.30;;;25.00;99.90;;;;;;5013164;28;20046;-65
2023/07/17 09:37:42;;;;;;;5.22;3.10;;;25.10;99.90;;;;;;5012896;28;20046;-65
2023/07/17 09:40:15;;;;;;;5.82;3.20;;;25.10;99.90;;;;;;5013384;28;20108;-65
2023/07/17 09:42:45;;;;;;;4.35;3.55;;;25.20;99.90;;;;;;5013311;28;20079;-65
2023/07/17 09:45:12;;;;;;;4.85;2.78;;;25.40;99.90;;;;;;5013136;28;20061;-65
2023/07/17 09:47:39;;;;;;;;;;;25.80;99.90;;;;;;5013482;28;20056;-65
2023/07/17 09:50:07;;;;;;;4.18;3.08;;;26.10;99.90;;;;;;5013065;28;19921;-65
2023/07/17 09:52:34;;;;;;;4.68;2.95;;;26.60;99.90;;;;;;5012984;28;20121;-65
2023/07/17 09:55:01;;;;;;;4.00;2.90;;;26.70;99.90;;;;;;5013145;28;20117;-65
2023/07/17 09:57:33;;;;;;;;;;;26.50;99.90;;;;;;5013149;28;20061;-65
2023/07/17 10:00:11;;;;;;;3.72;2.60;;;26.50;99.90;;;;;;5013013;28;19921;-65
2023/07/17 10:03:06;;;;;;;2.53;2.33;;;26.80;99.90;;;;;;5016261;28;20054;-65
2023/07/17 10:05:33;;;;;;;4.78;2.78;;;27.00;99.90;;;;;;5017214;28;20041;-65
2023/07/17 10:08:03;;;;;;;;;;;26.80;99.90;;;;;;5017802;28;20050;-65
2023/07/17 10:10:30;;;;;;;5.28;2.83;;;26.60;99.90;;;;;;5016844;28;19921;-65
2023/07/17 10:12:57;;;;;;;5.15;3.28;;;26.30;99.90;;;;;;5016856;28;20545;-65
2023/07/17 10:15:24;;;;;;;3.63;3.28;;;26.10;99.90;;;;;;5017174;28;20045;-65
2023/07/17 10:17:58;;;;;;;6.82;3.28;;;25.80;99.90;;;;;;5016918;28;20038;-65
2023/07/17 10:20:29;;;;;;;7.45;3.17;;;25.40;99.90;;;;;;5016981;28;20112;-65
2023/07/17 10:22:55;;;;;;;3.85;3.13;;;25.10;99.90;;;;;;5016562;28;20125;-65
2023/07/17 10:25:27;;;;;;;4.95;3.00;;;24.90;99.90;;;;;;5016545;28;20050;-65
2023/07/17 10:28:00;;;;;;;5.88;3.30;;;24.60;99.90;;;;;;5017041;28;20049;-64
2023/07/17 10:30:32;;;;;;;3.88;2.83;;;24.50;99.90;;;;;;5016507;28;20132;-65
2023/07/17 10:33:19;;;;;;;4.82;3.22;;;24.70;99.90;;;;;;5016459;28;20060;-65
2023/07/17 10:35:50;;;;;;;5.70;3.07;;;25.10;99.90;;;;;;5015082;28;20049;-65
2023/07/17 10:38:22;;;;;;;3.90;2.85;;;25.30;99.90;;;;;;5013166;28;20054;-65
2023/07/17 10:41:03;;;;;;;4.32;2.95;;;25.00;99.90;;;;;;5008338;28;20479;-65
2023/07/17 10:43:31;;;;;;;7.00;3.22;;;24.90;99.90;;;;;;5013897;28;20466;-65
2023/07/17 10:45:59;;;;;;;3.90;2.80;;;25.10;99.90;;;;;;5014777;28;20072;-65
2023/07/17 10:48:33;;;;;;;3.67;2.92;;;25.40;99.90;;;;;;5014398;28;20038;-65
2023/07/17 10:51:00;;;;;;;5.90;3.05;;;25.70;99.90;;;;;;5012616;28;20044;-65
2023/07/17 10:53:27;;;;;;;5.93;2.47;;;25.80;99.90;;;;;;5014521;28;20056;-65
2023/07/17 10:55:53;;;;;;;4.10;2.88;;;26.00;99.90;;;;;;5014670;28;20038;-65
2023/07/17 10:58:20;;;;;;;;;;;26.20;99.90;;;;;;5014225;28;20049;-65
2023/07/17 11:00:48;;;;;;;3.95;2.60;;;25.90;99.90;;;;;;5005218;28;20020;-65
2023/07/17 11:03:16;;;;;;;3.38;2.58;;;25.60;99.90;;;;;;5013674;28;20117;-65
2023/07/17 11:05:44;;;;;;;5.03;2.55;;;25.60;99.90;;;;;;5006249;28;20066;-65
2023/07/17 11:08:12;;;;;;;4.10;2.47;;;25.50;99.90;;;;;;5013614;28;20124;-65
2023/07/17 11:10:41;;;;;;;4.13;3.03;;;25.40;99.90;;;;;;5014343;28;20042;-65
2023/07/17 11:13:09;;;;;;;3.72;3.28;;;25.60;99.90;;;;;;5012579;28;20057;-65
2023/07/17 11:15:37;;;;;;;3.58;2.95;;;25.90;99.90;;;;;;5013981;28;20048;-65
2023/07/17 11:18:07;;;;;;;3.53;2.70;;;26.00;99.90;;;;;;5012396;28;20053;-65
2023/07/17 11:20:35;;;;;;;5.30;3.30;;;26.00;99.90;;;;;;5004459;28;20056;-65
2023/07/17 11:23:03;;;;;;;6.95;2.97;;;25.90;99.90;;;;;;5013978;28;20126;-65
2023/07/17 11:25:33;;;;;;;3.28;2.92;;;25.90;99.90;;;;;;5012507;28;20046;-65
2023/07/17 11:28:00;;;;;;;5.03;3.13;;;25.90;99.90;;;;;;5013503;28;20056;-65
2023/07/17 11:30:29;;;;;;;4.22;3.20;;;25.90;99.90;;;;;;5010498;28;20046;-65
2023/07/17 11:33:07;;;;;;;3.75;3.08;;;25.90;99.90;;;;;;5014048;28;20050;-65
2023/07/17 11:35:49;;;;;;;4.07;3.17;;;25.90;99.90;;;;;;5013866;28;20046;-65
2023/07/17 11:38:19;;;;;;;3.35;3.05;;;26.00;99.90;;;;;;5012173;28;20041;-65
2023/07/17 11:40:59;;;;;;;4.93;3.30;;;26.00;99.90;;;;;;5006046;28;20045;-65
2023/07/17 11:43:32;;;;;;;5.88;3.20;;;26.00;99.90;;;;;;4995764;28;20471;-65
2023/07/17 11:46:02;;;;;;;6.65;3.08;;;26.10;99.90;;;;;;5013455;28;20571;-65
2023/07/17 11:48:31;;;;;;;4.75;3.25;;;26.20;99.90;;;;;;5010306;28;20132;-65
2023/07/17 11:51:02;;;;;;;8.68;3.58;;;26.30;99.90;;;;;;4995970;28;20064;-65
2023/07/17 11:53:29;;;;;;;3.97;3.20;;;26.40;99.90;;;;;;5013312;28;20052;-65
2023/07/17 11:56:00;;;;;;;3.60;3.10;;;26.40;99.90;;;;;;5013851;28;20049;-65
2023/07/17 11:58:29;;;;;;;7.80;3.60;;;26.40;99.90;;;;;;5015581;28;20042;-65
2023/07/17 12:00:57;;;;;;;3.90;3.30;;;26.60;99.90;;;;;;5012496;28;20052;-65
2023/07/17 12:03:24;;;;;;;4.70;3.13;;;26.60;99.90;;;;;;5013370;28;20049;-65
2023/07/17 12:05:52;;;;;;;6.82;3.60;;;26.80;99.90;;;;;;5011920;28;20125;-65
2023/07/17 12:08:18;;;;;;;;;;;27.10;99.90;;;;;;5012147;28;20045;-65
2023/07/17 12:10:46;;;;;;;5.68;3.38;;;27.30;99.90;;;;;;5012333;28;19921;-65
2023/07/17 12:13:12;;;;;;;4.05;3.65;;;27.30;99.90;;;;;;5013233;28;20038;-65
2023/07/17 12:15:39;;;;;;;5.15;3.80;;;27.10;99.90;;;;;;5012926;28;20046;-66
2023/07/17 12:18:06;;;;;;;7.35;3.47;;;26.90;99.90;;;;;;5011636;28;20040;-65
2023/07/17 12:20:33;;;;;;;6.40;3.70;;;26.80;99.90;;;;;;5013279;28;20100;-65
2023/07/17 12:23:00;;;;;;;6.35;3.78;;;26.70;99.90;;;;;;5012900;28;20042;-65
2023/07/17 12:25:29;;;;;;;4.57;3.58;;;26.70;99.90;;;;;;5011799;28;20038;-65
2023/07/17 12:28:00;;;;;;;8.02;3.58;;;26.70;99.90;;;;;;5011693;28;20038;-65
2023/07/17 12:30:29;;;;;;;4.35;3.95;;;26.70;99.90;;;;;;5013048;28;20495;-65
2023/07/17 12:32:57;;;;;;;6.50;3.38;;;26.70;99.90;;;;;;5011614;28;20046;-65
2023/07/17 12:35:25;;;;;;;9.43;3.90;;;26.60;99.90;;;;;;5012902;28;20507;-65
2023/07/17 12:37:52;;;;;;;5.10;3.72;;;26.70;99.90;;;;;;5003158;28;20053;-65
2023/07/17 12:40:18;;;;;;;6.15;3.90;;;26.80;99.90;;;;;;5012909;28;20050;-65
2023/07/17 12:42:45;;;;;;;8.80;4.00;;;26.80;99.90;;;;;;5012818;28;20065;-65
2023/07/17 12:45:12;;;;;;;5.32;3.45;;;26.70;99.90;;;;;;5018052;28;20048;-65
2023/07/17 12:47:39;;;;;;;6.35;3.72;;;26.70;99.90;;;;;;5012553;28;20052;-65
2023/07/17 12:50:08;;;;;;;5.13;3.65;;;26.70;99.90;;;;;;5011673;28;20124;-65
2023/07/17 12:52:34;;;;;;;4.88;3.78;;;26.50;99.90;;;;;;5013552;28;20091;-65